createdAt,value
2019-04-10T00:00:26.526Z,2.85
2019-04-10T00:01:26.418Z,2.85
2019-04-10T00:02:26.230Z,2.8
2019-04-10T00:03:42.106Z,2.85
2019-04-10T00:04:28.133Z,2.83
2019-04-10T00:05:26.355Z,2.91
2019-04-10T00:06:26.510Z,2.85
2019-04-10T00:07:28.846Z,2.91
2019-04-10T00:08:26.669Z,2.99
2019-04-10T00:09:27.062Z,2.9
2019-04-10T00:10:26.280Z,2.99
2019-04-10T00:11:27.329Z,3.05
2019-04-10T00:12:26.246Z,3.13
2019-04-10T00:13:27.342Z,3.02
2019-04-10T00:14:26.492Z,3.16
2019-04-10T00:15:26.884Z,3.09
2019-04-10T00:16:27.785Z,3.19
2019-04-10T00:17:27.354Z,3.16
2019-04-10T00:18:26.911Z,3.14
2019-04-10T00:19:27.197Z,3.17
2019-04-10T00:20:27.271Z,3.14
2019-04-10T00:21:26.158Z,3.19
2019-04-10T00:22:27.007Z,3.09
2019-04-10T00:23:26.929Z,3.14
2019-04-10T00:24:26.731Z,3.02
2019-04-10T00:25:26.853Z,3.02
2019-04-10T00:26:26.440Z,2.88
2019-04-10T00:27:26.245Z,2.96
2019-04-10T00:28:26.024Z,2.84
2019-04-10T00:29:27.956Z,2.95
2019-04-10T00:30:27.053Z,2.96
2019-04-10T00:31:29.732Z,2.95
2019-04-10T00:32:26.171Z,2.8
2019-04-10T00:33:26.760Z,2.84
2019-04-10T00:34:26.027Z,2.8
2019-04-10T00:35:26.231Z,2.8
2019-04-10T00:36:26.696Z,2.66
2019-04-10T00:37:33.986Z,2.72
2019-04-10T00:38:26.573Z,2.7
2019-04-10T00:39:26.907Z,2.69
2019-04-10T00:40:26.188Z,2.62
2019-04-10T00:41:26.620Z,2.72
2019-04-10T00:42:26.067Z,2.77
2019-04-10T00:43:26.991Z,2.66
2019-04-10T00:44:26.418Z,2.65
2019-04-10T00:45:27.477Z,2.76
2019-04-10T00:46:26.862Z,2.65
2019-04-10T00:47:26.726Z,2.67
2019-04-10T00:48:26.412Z,2.66
2019-04-10T00:49:26.588Z,2.66
2019-04-10T00:50:26.465Z,2.73
2019-04-10T00:51:26.110Z,2.69
2019-04-10T00:52:26.572Z,2.77
2019-04-10T00:53:25.967Z,2.67
2019-04-10T00:54:26.471Z,2.65
2019-04-10T00:55:26.581Z,2.67
2019-04-10T00:56:26.640Z,2.66
2019-04-10T00:57:25.862Z,2.69
2019-04-10T00:58:25.914Z,2.62
2019-04-10T00:59:26.552Z,2.55
2019-04-10T01:00:26.440Z,2.67
2019-04-10T01:01:26.018Z,2.58
2019-04-10T01:02:25.188Z,2.54
2019-04-10T01:03:27.554Z,2.58
2019-04-10T01:04:26.532Z,2.54
2019-04-10T01:05:25.380Z,2.69
2019-04-10T01:06:26.470Z,2.54
2019-04-10T01:07:44.663Z,2.66
2019-04-10T01:08:25.335Z,2.66
2019-04-10T01:09:26.041Z,2.65
2019-04-10T01:10:26.240Z,2.62
2019-04-10T01:11:25.841Z,2.59
2019-04-10T01:12:26.290Z,2.54
2019-04-10T01:13:25.656Z,2.59
2019-04-10T01:14:26.062Z,2.59
2019-04-10T01:15:25.223Z,2.55
2019-04-10T01:16:25.578Z,2.58
2019-04-10T01:17:26.032Z,2.55
2019-04-10T01:18:26.809Z,2.48
2019-04-10T01:19:26.231Z,2.49
2019-04-10T01:20:26.174Z,2.42
2019-04-10T01:21:25.126Z,2.48
2019-04-10T01:22:27.404Z,2.48
2019-04-10T01:23:25.259Z,2.55
2019-04-10T01:24:26.110Z,2.4
2019-04-10T01:25:26.022Z,2.44
2019-04-10T01:26:25.925Z,2.49
2019-04-10T01:27:26.056Z,2.45
2019-04-10T01:28:25.352Z,2.38
2019-04-10T01:29:25.124Z,2.34
2019-04-10T01:30:24.974Z,2.42
2019-04-10T01:31:26.807Z,2.34
2019-04-10T01:32:26.145Z,2.31
2019-04-10T01:33:25.462Z,2.36
2019-04-10T01:34:25.925Z,2.3
2019-04-10T01:35:24.877Z,2.3
2019-04-10T01:36:25.502Z,2.22
2019-04-10T01:37:25.222Z,2.24
2019-04-10T01:38:25.146Z,2.12
2019-04-10T01:39:24.832Z,2.13
2019-04-10T01:40:26.734Z,2.16
2019-04-10T01:41:25.802Z,2.23
2019-04-10T01:42:25.428Z,2.2
2019-04-10T01:43:24.970Z,2.23
2019-04-10T01:44:25.275Z,2.26
2019-04-10T01:45:25.117Z,2.16
2019-04-10T01:46:24.918Z,2.27
2019-04-10T01:47:26.843Z,2.29
2019-04-10T01:48:24.679Z,2.26
2019-04-10T01:49:24.416Z,2.29
2019-04-10T01:50:24.927Z,2.3
2019-04-10T01:51:25.621Z,2.3
2019-04-10T01:52:25.365Z,2.31
2019-04-10T01:53:24.590Z,2.33
2019-04-10T01:54:25.139Z,2.31
2019-04-10T01:55:34.727Z,2.27
2019-04-10T01:56:36.734Z,2.3
2019-04-10T01:57:24.637Z,2.29
2019-04-10T01:58:25.573Z,2.29
2019-04-10T01:59:25.568Z,2.23
2019-04-10T02:00:24.477Z,2.27
2019-04-10T02:01:26.555Z,2.22
2019-04-10T02:02:25.529Z,2.13
2019-04-10T02:03:25.693Z,2.11
2019-04-10T02:04:25.206Z,2.16
2019-04-10T02:05:25.324Z,2.13
2019-04-10T02:06:25.224Z,2.04
2019-04-10T02:07:26.377Z,2.02
2019-04-10T02:08:24.353Z,1.98
2019-04-10T02:09:24.098Z,2.02
2019-04-10T02:10:26.196Z,1.92
2019-04-10T02:11:24.480Z,1.87
2019-04-10T02:12:26.238Z,1.9
2019-04-10T02:13:24.022Z,1.86
2019-04-10T02:14:25.208Z,1.89
2019-04-10T02:15:24.258Z,1.75
2019-04-10T02:16:25.610Z,1.72
2019-04-10T02:17:24.983Z,1.74
2019-04-10T02:18:24.175Z,1.68
2019-04-10T02:19:24.360Z,1.6
2019-04-10T02:20:25.063Z,1.64
2019-04-10T02:21:25.808Z,1.61
2019-04-10T02:22:25.116Z,1.53
2019-04-10T02:23:26.035Z,1.56
2019-04-10T02:24:25.054Z,1.53
2019-04-10T02:25:24.707Z,1.56
2019-04-10T02:26:24.052Z,1.56
2019-04-10T02:27:25.155Z,1.58
2019-04-10T02:28:25.120Z,1.5
2019-04-10T02:29:24.434Z,1.48
2019-04-10T02:30:26.767Z,1.53
2019-04-10T02:31:30.174Z,1.54
2019-04-10T02:32:28.210Z,1.46
2019-04-10T02:33:27.432Z,1.38
2019-04-10T02:34:28.370Z,1.36
2019-04-10T02:35:27.640Z,1.35
2019-04-10T02:36:27.477Z,1.36
2019-04-10T02:37:27.031Z,1.46
2019-04-10T02:39:11.853Z,1.42
2019-04-10T02:40:00.753Z,1.39
2019-04-10T02:40:49.839Z,1.32
2019-04-10T02:41:47.921Z,1.39
2019-04-10T02:42:49.147Z,1.4
2019-04-10T02:43:45.501Z,1.39
2019-04-10T02:44:48.064Z,1.38
2019-04-10T02:45:47.076Z,1.24
2019-04-10T02:46:47.595Z,1.33
2019-04-10T02:47:47.574Z,1.3
2019-04-10T02:48:47.597Z,1.21
2019-04-10T02:49:46.853Z,1.21
2019-04-10T02:50:45.801Z,1.18
2019-04-10T02:51:49.654Z,1.1
2019-04-10T02:52:50.362Z,1.12
2019-04-10T02:53:48.009Z,1.14
2019-04-10T02:54:46.149Z,1.15
2019-04-10T02:55:47.465Z,1.14
2019-04-10T02:56:49.475Z,1.12
2019-04-10T02:57:49.694Z,1.07
2019-04-10T02:58:46.846Z,1.1
2019-04-10T02:59:46.965Z,1.11
2019-04-10T03:00:46.256Z,1.07
2019-04-10T03:01:44.514Z,1.02
2019-04-10T03:02:48.277Z,0.97
2019-04-10T03:03:46.824Z,0.94
2019-04-10T03:04:46.880Z,0.92
2019-04-10T03:05:47.011Z,0.94
2019-04-10T03:06:45.309Z,0.94
2019-04-10T03:07:48.161Z,0.86
2019-04-10T03:09:36.584Z,0.9
2019-04-10T03:10:50.306Z,0.84
2019-04-10T03:11:28.131Z,0.85
2019-04-10T03:12:24.513Z,0.84
2019-04-10T03:13:26.800Z,0.82
2019-04-10T03:14:24.276Z,0.82
2019-04-10T03:15:27.119Z,0.78
2019-04-10T03:16:23.589Z,0.67
2019-04-10T03:17:22.533Z,0.71
2019-04-10T03:18:23.326Z,0.66
2019-04-10T03:19:22.305Z,0.64
2019-04-10T03:20:23.217Z,0.64
2019-04-10T03:21:23.127Z,0.6
2019-04-10T03:22:23.234Z,0.63
2019-04-10T03:23:23.456Z,0.6
2019-04-10T03:24:23.165Z,0.64
2019-04-10T03:25:24.625Z,0.53
2019-04-10T03:26:21.875Z,0.63
2019-04-10T03:27:25.972Z,0.56
2019-04-10T03:28:22.935Z,0.64
2019-04-10T03:29:22.333Z,0.56
2019-04-10T03:30:27.303Z,0.53
2019-04-10T03:31:25.208Z,0.53
2019-04-10T03:32:30.772Z,0.48
2019-04-10T03:33:33.473Z,0.48
2019-04-10T03:34:31.765Z,0.5
2019-04-10T03:35:23.082Z,0.5
2019-04-10T03:36:23.166Z,0.56
2019-04-10T03:37:22.897Z,0.48
2019-04-10T03:38:24.083Z,0.41
2019-04-10T03:39:22.247Z,0.37
2019-04-10T03:40:22.205Z,0.39
2019-04-10T03:41:22.545Z,0.42
2019-04-10T03:42:21.587Z,0.34
2019-04-10T03:43:22.262Z,0.23
2019-04-10T03:44:22.768Z,0.28
2019-04-10T03:45:22.675Z,0.24
2019-04-10T03:46:22.022Z,0.23
2019-04-10T03:47:22.932Z,0.17
2019-04-10T03:48:23.027Z,0.21
2019-04-10T03:49:22.627Z,0.14
2019-04-10T03:50:21.850Z,0.19
2019-04-10T03:51:22.804Z,0.14
2019-04-10T03:52:21.763Z,0.17
2019-04-10T03:53:23.205Z,0.13
2019-04-10T03:54:21.393Z,0.13
2019-04-10T03:55:21.607Z,0.16
2019-04-10T03:56:23.778Z,0.14
2019-04-10T03:57:21.326Z,0.1
2019-04-10T03:58:23.113Z,0.14
2019-04-10T03:59:22.588Z,0.2
2019-04-10T04:00:23.005Z,0.05
2019-04-10T04:01:21.502Z,0.19
2019-04-10T04:02:22.515Z,0.08
2019-04-10T04:03:21.465Z,0.1
2019-04-10T04:04:22.304Z,0.08
2019-04-10T04:05:22.391Z,0.08
2019-04-10T04:06:22.340Z,0.06
2019-04-10T04:07:24.676Z,0.1
2019-04-10T04:08:21.756Z,0.06
2019-04-10T04:09:22.395Z,0.05
2019-04-10T04:10:21.430Z,0.05
2019-04-10T04:11:22.330Z,0.01
2019-04-10T04:12:22.287Z,-0.01
2019-04-10T04:13:22.252Z,0.01
2019-04-10T04:14:22.392Z,0.02
2019-04-10T04:15:22.332Z,-0.01
2019-04-10T04:16:22.668Z,0.02
2019-04-10T04:17:22.424Z,0.01
2019-04-10T04:18:21.977Z,0.03
2019-04-10T04:19:22.010Z,-0.01
2019-04-10T04:20:21.711Z,0.01
2019-04-10T04:21:22.155Z,-0.09
2019-04-10T04:22:21.260Z,-0.02
2019-04-10T04:23:21.970Z,-0.05
2019-04-10T04:24:24.976Z,-0.05
2019-04-10T04:25:21.940Z,-0.07
2019-04-10T04:26:21.451Z,-0.05
2019-04-10T04:27:24.989Z,-0.16
2019-04-10T04:28:21.675Z,-0.16
2019-04-10T04:29:21.213Z,-0.07
2019-04-10T04:30:22.853Z,-0.16
2019-04-10T04:31:20.948Z,-0.12
2019-04-10T04:32:22.021Z,-0.09
2019-04-10T04:33:21.510Z,-0.13
2019-04-10T04:34:21.144Z,-0.1
2019-04-10T04:35:20.873Z,-0.09
2019-04-10T04:36:20.861Z,-0.09
2019-04-10T04:37:21.360Z,-0.13
2019-04-10T04:38:23.486Z,-0.1
2019-04-10T04:39:33.012Z,-0.13
2019-04-10T04:40:22.062Z,-0.01
2019-04-10T04:41:21.935Z,0.02
2019-04-10T04:42:22.342Z,0.02
2019-04-10T04:43:21.835Z,0.05
2019-04-10T04:44:20.716Z,0.09
2019-04-10T04:45:21.830Z,0.1
2019-04-10T04:46:20.972Z,0.14
2019-04-10T04:47:20.692Z,0.06
2019-04-10T04:48:22.060Z,0.14
2019-04-10T04:49:20.755Z,0.2
2019-04-10T04:50:20.385Z,0.14
2019-04-10T04:51:20.351Z,0.16
2019-04-10T04:52:21.054Z,0.17
2019-04-10T04:53:20.580Z,0.16
2019-04-10T04:54:21.587Z,0.2
2019-04-10T04:55:20.283Z,0.21
2019-04-10T04:56:20.570Z,0.2
2019-04-10T04:57:22.835Z,0.19
2019-04-10T04:58:20.545Z,0.23
2019-04-10T04:59:21.025Z,0.31
2019-04-10T05:00:20.174Z,0.32
2019-04-10T05:01:21.722Z,0.24
2019-04-10T05:02:20.401Z,0.35
2019-04-10T05:03:21.154Z,0.31
2019-04-10T05:04:20.350Z,0.31
2019-04-10T05:05:21.219Z,0.32
2019-04-10T05:06:20.811Z,0.47
2019-04-10T05:07:20.515Z,0.37
2019-04-10T05:08:20.032Z,0.53
2019-04-10T05:09:40.984Z,0.5
2019-04-10T05:10:20.857Z,0.6
2019-04-10T05:11:20.706Z,0.61
2019-04-10T05:12:23.487Z,0.63
2019-04-10T05:13:20.599Z,0.75
2019-04-10T05:14:20.165Z,0.66
2019-04-10T05:15:21.207Z,0.72
2019-04-10T05:16:21.024Z,0.85
2019-04-10T05:17:22.670Z,0.76
2019-04-10T05:18:21.127Z,0.84
2019-04-10T05:19:22.093Z,0.78
2019-04-10T05:20:21.312Z,0.72
2019-04-10T05:21:20.910Z,0.69
2019-04-10T05:22:21.990Z,0.79
2019-04-10T05:23:20.886Z,0.69
2019-04-10T05:24:20.598Z,0.71
2019-04-10T05:25:19.725Z,0.71
2019-04-10T05:26:20.986Z,0.74
2019-04-10T05:27:20.825Z,0.85
2019-04-10T05:28:22.177Z,0.75
2019-04-10T05:29:21.533Z,0.79
2019-04-10T05:30:21.109Z,0.79
2019-04-10T05:31:19.941Z,0.81
2019-04-10T05:32:21.484Z,0.82
2019-04-10T05:33:20.956Z,0.81
2019-04-10T05:34:20.511Z,0.85
2019-04-10T05:35:20.000Z,0.79
2019-04-10T05:36:20.130Z,0.93
2019-04-10T05:37:21.552Z,0.9
2019-04-10T05:38:20.753Z,0.85
2019-04-10T05:39:19.727Z,0.96
2019-04-10T05:40:19.800Z,0.84
2019-04-10T05:41:20.036Z,0.93
2019-04-10T05:42:20.582Z,0.89
2019-04-10T05:43:20.068Z,0.86
2019-04-10T05:44:23.487Z,0.93
2019-04-10T05:45:19.638Z,1.03
2019-04-10T05:46:21.438Z,1.02
2019-04-10T05:47:19.657Z,1.02
2019-04-10T05:48:22.321Z,1.12
2019-04-10T05:49:20.623Z,1.11
2019-04-10T05:50:19.829Z,1.15
2019-04-10T05:51:19.833Z,1.12
2019-04-10T05:52:20.538Z,1.12
2019-04-10T05:53:20.810Z,1.21
2019-04-10T05:54:19.801Z,1.18
2019-04-10T05:55:20.420Z,1.21
2019-04-10T05:56:22.409Z,1.28
2019-04-10T05:57:20.562Z,1.21
2019-04-10T05:58:19.983Z,1.38
2019-04-10T05:59:19.572Z,1.42
2019-04-10T06:00:19.351Z,1.38
2019-04-10T06:01:37.074Z,1.5
2019-04-10T06:02:20.503Z,1.46
2019-04-10T06:03:19.303Z,1.53
2019-04-10T06:04:19.354Z,1.56
2019-04-10T06:05:20.284Z,1.54
2019-04-10T06:06:20.019Z,1.56
2019-04-10T06:07:19.475Z,1.68
2019-04-10T06:08:19.215Z,1.84
2019-04-10T06:09:19.192Z,1.97
2019-04-10T06:10:20.221Z,2.05
2019-04-10T06:11:20.511Z,2.16
2019-04-10T06:12:20.228Z,2.3
2019-04-10T06:13:19.862Z,2.33
2019-04-10T06:14:20.232Z,2.31
2019-04-10T06:15:19.584Z,2.52
2019-04-10T06:16:20.102Z,2.6
2019-04-10T06:17:19.052Z,2.55
2019-04-10T06:18:21.193Z,2.59
2019-04-10T06:19:20.233Z,2.6
2019-04-10T06:20:20.884Z,2.58
2019-04-10T06:21:19.337Z,2.67
2019-04-10T06:22:19.399Z,2.62
2019-04-10T06:23:19.785Z,2.63
2019-04-10T06:24:19.337Z,2.63
2019-04-10T06:25:24.837Z,2.54
2019-04-10T06:26:23.565Z,2.54
2019-04-10T06:27:19.034Z,2.58
2019-04-10T06:28:19.711Z,2.66
2019-04-10T06:29:19.700Z,2.69
2019-04-10T06:30:20.156Z,2.55
2019-04-10T06:31:19.444Z,2.6
2019-04-10T06:32:19.451Z,2.58
2019-04-10T06:33:20.021Z,2.66
2019-04-10T06:34:22.950Z,2.67
2019-04-10T06:35:19.747Z,2.7
2019-04-10T06:36:19.913Z,2.78
2019-04-10T06:37:18.470Z,2.78
2019-04-10T06:38:19.555Z,2.84
2019-04-10T06:39:18.982Z,2.9
2019-04-10T06:40:29.339Z,3.11
2019-04-10T06:41:22.313Z,3.05
2019-04-10T06:42:19.035Z,3.11
2019-04-10T06:43:19.462Z,3.09
2019-04-10T06:44:19.942Z,2.98
2019-04-10T06:45:19.725Z,3.09
2019-04-10T06:46:20.097Z,3.14
2019-04-10T06:47:18.662Z,3.14
2019-04-10T06:48:19.545Z,3.09
2019-04-10T06:49:19.255Z,3.01
2019-04-10T06:50:19.583Z,3.03
2019-04-10T06:51:22.195Z,2.95
2019-04-10T06:52:19.141Z,3.06
2019-04-10T06:53:21.302Z,3.06
2019-04-10T06:54:19.190Z,3.13
2019-04-10T06:55:18.611Z,3.11
2019-04-10T06:56:19.084Z,3.29
2019-04-10T06:57:19.397Z,3.27
2019-04-10T06:58:18.483Z,3.24
2019-04-10T06:59:19.123Z,3.26
2019-04-10T07:00:22.989Z,3.34
2019-04-10T07:01:24.919Z,3.4
2019-04-10T07:02:33.834Z,3.4
2019-04-10T07:03:19.355Z,3.39
2019-04-10T07:04:25.181Z,3.46
2019-04-10T07:05:19.920Z,3.43
2019-04-10T07:06:43.668Z,3.51
2019-04-10T07:07:35.579Z,3.39
2019-04-10T07:08:27.446Z,3.45
2019-04-10T07:09:25.116Z,3.57
2019-04-10T07:10:51.922Z,3.6
2019-04-10T07:11:25.439Z,3.56
2019-04-10T07:12:19.184Z,3.57
2019-04-10T07:13:18.302Z,3.69
2019-04-10T07:14:20.392Z,3.78
2019-04-10T07:15:27.298Z,3.97
2019-04-10T07:16:18.389Z,3.93
2019-04-10T07:17:20.331Z,3.97
2019-04-10T07:18:24.361Z,3.99
2019-04-10T07:19:18.160Z,4.02
2019-04-10T07:20:24.033Z,4.04
2019-04-10T07:21:17.751Z,4.07
2019-04-10T07:22:20.755Z,3.96
2019-04-10T07:23:31.623Z,3.94
2019-04-10T07:24:20.939Z,4.04
2019-04-10T07:25:21.683Z,3.93
2019-04-10T07:26:43.078Z,4.04
2019-04-10T07:27:19.482Z,4.03
2019-04-10T07:28:19.769Z,4.14
2019-04-10T07:29:27.619Z,4.2
2019-04-10T07:30:24.010Z,4.12
2019-04-10T07:31:17.859Z,4.2
2019-04-10T07:32:19.545Z,4.22
2019-04-10T07:33:24.510Z,4.15
2019-04-10T07:34:25.475Z,4.3
2019-04-10T07:35:24.067Z,4.3
2019-04-10T07:36:18.641Z,4.22
2019-04-10T07:37:26.931Z,4.14
2019-04-10T07:38:21.093Z,4.14
2019-04-10T07:39:17.919Z,4.24
2019-04-10T07:40:18.685Z,4.14
2019-04-10T07:41:29.331Z,4.17
2019-04-10T07:42:40.053Z,4.18
2019-04-10T07:43:18.495Z,4.14
2019-04-10T07:44:17.397Z,4.03
2019-04-10T07:45:17.375Z,3.96
2019-04-10T07:46:17.945Z,3.92
2019-04-10T07:47:18.100Z,4
2019-04-10T07:48:18.699Z,3.92
2019-04-10T07:49:21.906Z,3.93
2019-04-10T07:50:18.090Z,3.9
2019-04-10T07:51:19.382Z,3.96
2019-04-10T07:52:19.905Z,4.07
2019-04-10T07:53:17.611Z,4.18
2019-04-10T07:54:25.040Z,4.15
2019-04-10T07:55:17.679Z,4.2
2019-04-10T07:56:24.499Z,4.17
2019-04-10T07:57:18.545Z,4.1
2019-04-10T07:58:17.984Z,4.08
2019-04-10T07:59:18.766Z,4.1
2019-04-10T08:00:18.466Z,4.04
2019-04-10T08:01:18.539Z,4.12
2019-04-10T08:02:17.365Z,4.18
2019-04-10T08:03:17.345Z,4.26
2019-04-10T08:04:18.138Z,4.4
2019-04-10T08:05:17.315Z,4.48
2019-04-10T08:06:17.989Z,4.56
2019-04-10T08:07:38.596Z,4.46
2019-04-10T08:08:17.501Z,4.6
2019-04-10T08:09:17.351Z,4.51
2019-04-10T08:10:18.247Z,4.56
2019-04-10T08:11:18.063Z,4.54
2019-04-10T08:12:18.989Z,4.46
2019-04-10T08:13:17.290Z,4.57
2019-04-10T08:14:17.522Z,4.5
2019-04-10T08:15:19.203Z,4.46
2019-04-10T08:16:17.101Z,4.58
2019-04-10T08:17:17.135Z,4.61
2019-04-10T08:18:17.155Z,4.61
2019-04-10T08:19:17.234Z,4.61
2019-04-10T08:20:18.093Z,4.66
2019-04-10T08:21:18.230Z,4.76
2019-04-10T08:22:17.937Z,4.66
2019-04-10T08:23:17.511Z,4.71
2019-04-10T08:24:18.259Z,4.66
2019-04-10T08:25:17.004Z,4.76
2019-04-10T08:26:16.994Z,4.79
2019-04-10T08:27:17.226Z,4.83
2019-04-10T08:28:17.989Z,5
2019-04-10T08:29:16.948Z,5.15
2019-04-10T08:30:17.622Z,5.24
2019-04-10T08:31:17.301Z,5.41
2019-04-10T08:32:17.920Z,5.39
2019-04-10T08:33:17.447Z,5.51
2019-04-10T08:34:17.488Z,5.51
2019-04-10T08:35:17.979Z,5.62
2019-04-10T08:36:17.758Z,5.66
2019-04-10T08:37:17.389Z,5.64
2019-04-10T08:38:17.630Z,5.51
2019-04-10T08:39:41.525Z,5.64
2019-04-10T08:40:19.022Z,5.75
2019-04-10T08:41:17.259Z,5.69
2019-04-10T08:42:17.446Z,5.85
2019-04-10T08:43:17.027Z,5.73
2019-04-10T08:44:17.674Z,5.77
2019-04-10T08:45:16.872Z,5.92
2019-04-10T08:46:17.788Z,5.8
2019-04-10T08:47:17.735Z,5.81
2019-04-10T08:48:17.798Z,5.77
2019-04-10T08:49:16.790Z,5.73
2019-04-10T08:50:17.367Z,5.75
2019-04-10T08:51:17.320Z,5.73
2019-04-10T08:52:19.936Z,5.75
2019-04-10T08:53:16.353Z,5.77
2019-04-10T08:54:16.861Z,5.72
2019-04-10T08:55:17.611Z,5.73
2019-04-10T08:56:18.649Z,5.72
2019-04-10T08:57:17.224Z,5.75
2019-04-10T08:58:16.913Z,5.78
2019-04-10T08:59:16.589Z,5.82
2019-04-10T09:00:16.999Z,5.85
2019-04-10T09:01:17.761Z,5.88
2019-04-10T09:02:16.475Z,5.91
2019-04-10T09:03:17.400Z,5.99
2019-04-10T09:04:17.821Z,6.2
2019-04-10T09:05:17.496Z,6.34
2019-04-10T09:06:17.287Z,6.4
2019-04-10T09:07:16.239Z,6.6
2019-04-10T09:08:17.542Z,6.68
2019-04-10T09:09:17.630Z,6.82
2019-04-10T09:10:17.101Z,6.95
2019-04-10T09:11:28.343Z,6.98
2019-04-10T09:12:16.333Z,6.95
2019-04-10T09:13:17.091Z,7.18
2019-04-10T09:14:17.523Z,7.4
2019-04-10T09:15:16.641Z,7.51
2019-04-10T09:16:16.673Z,7.56
2019-04-10T09:17:17.331Z,8.03
2019-04-10T09:18:17.887Z,8.28
2019-04-10T09:19:16.774Z,8.31
2019-04-10T09:20:16.607Z,8.49
2019-04-10T09:21:17.313Z,8.71
2019-04-10T09:22:16.825Z,8.95
2019-04-10T09:23:52.297Z,8.98
2019-04-10T09:24:19.922Z,8.92
2019-04-10T09:25:17.689Z,8.85
2019-04-10T09:26:16.212Z,8.85
2019-04-10T09:27:17.138Z,8.72
2019-04-10T09:28:16.504Z,8.86
2019-04-10T09:29:16.679Z,9.04
2019-04-10T09:30:16.387Z,8.94
2019-04-10T09:31:16.049Z,8.68
2019-04-10T09:32:18.085Z,8.6
2019-04-10T09:33:32.250Z,8.4
2019-04-10T09:34:16.308Z,8.17
2019-04-10T09:35:16.646Z,8.22
2019-04-10T09:36:16.049Z,8.16
2019-04-10T09:37:16.021Z,8.07
2019-04-10T09:38:17.025Z,8.09
2019-04-10T09:39:17.333Z,8.06
2019-04-10T09:40:16.768Z,8.24
2019-04-10T09:41:17.457Z,8.36
2019-04-10T09:42:17.080Z,8.49
2019-04-10T09:43:17.729Z,8.68
2019-04-10T09:44:17.080Z,8.97
2019-04-10T09:45:16.321Z,9.01
2019-04-10T09:46:16.242Z,9.09
2019-04-10T09:47:16.493Z,9.11
2019-04-10T09:48:16.542Z,9.23
2019-04-10T09:49:17.119Z,9.26
2019-04-10T09:51:45.873Z,8.98
2019-04-10T09:52:46.464Z,8.95
2019-04-10T09:53:46.043Z,8.72
2019-04-10T09:54:45.244Z,8.76
2019-04-10T09:55:45.316Z,8.64
2019-04-10T09:56:46.173Z,8.36
2019-04-10T09:57:45.679Z,8.31
2019-04-10T09:58:45.368Z,8.28
2019-04-10T09:59:48.928Z,8.31
2019-04-10T10:00:46.181Z,8.32
2019-04-10T10:01:45.160Z,8.16
2019-04-10T10:02:45.292Z,8.17
2019-04-10T10:03:44.914Z,8.21
2019-04-10T10:04:46.260Z,8.31
2019-04-10T10:05:45.114Z,8.22
2019-04-10T10:06:45.662Z,8.24
2019-04-10T10:07:45.828Z,8.32
2019-04-10T10:08:46.396Z,8.31
2019-04-10T10:09:45.778Z,8.4
2019-04-10T10:10:47.230Z,8.34
2019-04-10T10:11:45.207Z,8.22
2019-04-10T10:12:45.567Z,8.09
2019-04-10T10:13:46.220Z,7.92
2019-04-10T10:14:45.005Z,7.7
2019-04-10T10:15:45.887Z,7.58
2019-04-10T10:16:44.981Z,7.49
2019-04-10T10:17:46.969Z,7.47
2019-04-10T10:18:46.026Z,7.55
2019-04-10T10:19:45.994Z,7.56
2019-04-10T10:20:45.962Z,7.63
2019-04-10T10:21:45.588Z,7.67
2019-04-10T10:22:45.946Z,7.64
2019-04-10T10:23:46.441Z,7.59
2019-04-10T10:24:45.287Z,7.61
2019-04-10T10:25:45.501Z,7.63
2019-04-10T10:26:49.357Z,7.49
2019-04-10T10:27:46.504Z,7.39
2019-04-10T10:28:45.363Z,7.39
2019-04-10T10:29:45.808Z,7.48
2019-04-10T10:30:44.558Z,7.51
2019-04-10T10:31:45.068Z,7.55
2019-04-10T10:32:46.154Z,7.58
2019-04-10T10:33:44.514Z,7.58
2019-04-10T10:34:45.586Z,7.61
2019-04-10T10:35:45.876Z,7.51
2019-04-10T10:36:54.034Z,7.41
2019-04-10T10:37:46.295Z,7.47
2019-04-10T10:38:45.794Z,7.39
2019-04-10T10:39:45.887Z,7.37
2019-04-10T10:40:46.021Z,7.4
2019-04-10T10:41:45.333Z,7.45
2019-04-10T10:42:46.190Z,7.52
2019-04-10T10:43:45.221Z,7.7
2019-04-10T10:44:45.927Z,7.7
2019-04-10T10:45:45.354Z,7.83
2019-04-10T10:46:44.597Z,7.8
2019-04-10T10:47:46.344Z,7.82
2019-04-10T10:48:44.514Z,7.68
2019-04-10T10:49:45.018Z,7.64
2019-04-10T10:50:44.318Z,7.59
2019-04-10T10:51:44.991Z,7.71
2019-04-10T10:52:45.598Z,7.8
2019-04-10T10:53:46.497Z,7.75
2019-04-10T10:54:45.601Z,7.82
2019-04-10T10:55:45.489Z,7.63
2019-04-10T10:56:44.795Z,7.55
2019-04-10T10:57:44.490Z,7.63
2019-04-10T10:58:44.535Z,7.58
2019-04-10T10:59:44.599Z,7.52
2019-04-10T11:00:45.478Z,7.52
2019-04-10T11:01:44.768Z,7.41
2019-04-10T11:02:44.155Z,7.39
2019-04-10T11:03:45.259Z,7.36
2019-04-10T11:04:45.732Z,7.3
2019-04-10T11:05:44.714Z,7.37
2019-04-10T11:08:53.899Z,7.61
2019-04-10T11:09:05.778Z,7.63
2019-04-10T11:10:07.010Z,7.59
2019-04-10T11:11:06.581Z,7.58
2019-04-10T11:12:06.938Z,7.85
2019-04-10T11:13:04.838Z,7.74
2019-04-10T11:14:07.768Z,7.8
2019-04-10T11:15:05.929Z,7.8
2019-04-10T11:16:12.938Z,7.92
2019-04-10T11:17:06.251Z,8.07
2019-04-10T11:18:05.310Z,8.03
2019-04-10T11:19:05.167Z,8.16
2019-04-10T11:20:06.172Z,8.21
2019-04-10T11:21:14.136Z,8.22
2019-04-10T11:22:05.126Z,8.25
2019-04-10T11:23:06.400Z,8.34
2019-04-10T11:24:06.973Z,8.43
2019-04-10T11:25:06.240Z,8.62
2019-04-10T11:26:04.769Z,8.6
2019-04-10T11:27:06.295Z,8.61
2019-04-10T11:28:07.537Z,8.76
2019-04-10T11:29:06.074Z,8.86
2019-04-10T11:30:08.371Z,8.85
2019-04-10T11:31:07.173Z,8.76
2019-04-10T11:32:06.833Z,8.79
2019-04-10T11:33:06.057Z,8.62
2019-04-10T11:34:08.125Z,8.5
2019-04-10T11:35:06.695Z,8.49
2019-04-10T11:36:06.741Z,8.34
2019-04-10T11:37:43.392Z,8.26
2019-04-10T11:39:58.578Z,8.06
2019-04-10T11:43:03.506Z,7.96
2019-04-10T11:43:17.068Z,8.03
2019-04-10T11:44:22.158Z,7.85
2019-04-10T11:45:19.205Z,7.95
2019-04-10T11:46:20.083Z,8.01
2019-04-10T11:47:17.225Z,8.06
2019-04-10T11:48:20.533Z,8.1
2019-04-10T11:49:23.024Z,8.07
2019-04-10T11:50:25.439Z,8.14
2019-04-10T11:56:52.746Z,8.28
2019-04-10T11:57:51.522Z,8.29
2019-04-10T12:02:10.207Z,8.21
2019-04-10T12:02:37.064Z,8.29
2019-04-10T12:03:37.025Z,8.25
2019-04-10T12:04:43.415Z,8.26
2019-04-10T12:05:36.549Z,8.25
2019-04-10T12:08:54.653Z,8.34
2019-04-10T12:12:04.186Z,8.39
2019-04-10T12:13:04.628Z,8.36
2019-04-10T12:14:03.757Z,8.39
2019-04-10T12:15:04.527Z,8.36
2019-04-10T12:16:03.735Z,8.19
2019-04-10T12:17:03.780Z,8.31
2019-04-10T12:18:04.672Z,8.17
2019-04-10T12:19:05.097Z,8.34
2019-04-10T12:20:04.712Z,8.29
2019-04-10T12:21:05.183Z,8.26
2019-04-10T12:22:03.824Z,8.24
2019-04-10T12:23:03.614Z,8.14
2019-04-10T12:24:03.719Z,8.17
2019-04-10T12:25:03.345Z,8.22
2019-04-10T12:26:03.842Z,8.39
2019-04-10T12:27:04.799Z,8.47
2019-04-10T12:28:03.693Z,8.47
2019-04-10T12:29:04.849Z,8.67
2019-04-10T12:30:05.305Z,8.65
2019-04-10T12:31:04.285Z,8.76
2019-04-10T12:32:04.152Z,8.87
2019-04-10T12:33:03.568Z,9.03
2019-04-10T12:34:06.623Z,8.94
2019-04-10T12:35:04.599Z,8.98
2019-04-10T12:36:04.478Z,8.9
2019-04-10T12:37:03.541Z,8.83
2019-04-10T12:38:15.075Z,8.69
2019-04-10T12:39:03.730Z,8.74
2019-04-10T12:40:03.821Z,8.64
2019-04-10T12:41:03.977Z,8.67
2019-04-10T12:42:04.402Z,8.54
2019-04-10T12:43:03.584Z,8.49
2019-04-10T12:44:03.628Z,8.43
2019-04-10T12:45:04.809Z,8.32
2019-04-10T12:46:04.444Z,8.31
2019-04-10T12:47:04.294Z,8.24
2019-04-10T12:48:04.419Z,8.29
2019-04-10T12:49:07.364Z,8.26
2019-04-10T12:50:03.751Z,8.31
2019-04-10T12:51:03.786Z,8.43
2019-04-10T12:52:03.260Z,8.52
2019-04-10T12:53:03.619Z,8.47
2019-04-10T12:54:04.612Z,8.42
2019-04-10T12:55:04.497Z,8.39
2019-04-10T12:56:04.326Z,8.29
2019-04-10T12:57:04.769Z,8.34
2019-04-10T12:58:19.274Z,8.32
2019-04-10T12:59:04.158Z,8.26
2019-04-10T13:00:09.690Z,8.21
2019-04-10T13:01:03.210Z,8.24
2019-04-10T13:02:03.143Z,8.28
2019-04-10T13:03:03.459Z,8.21
2019-04-10T13:04:03.429Z,8.21
2019-04-10T13:05:03.273Z,8.19
2019-04-10T13:06:05.238Z,8.35
2019-04-10T13:07:03.833Z,8.32
2019-04-10T13:08:29.975Z,8.31
2019-04-10T13:09:18.400Z,8.32
2019-04-10T13:10:15.177Z,8.36
2019-04-10T13:11:14.920Z,8.49
2019-04-10T13:12:13.876Z,8.6
2019-04-10T13:13:14.044Z,8.58
2019-04-10T13:14:14.948Z,8.69
2019-04-10T13:15:13.564Z,8.65
2019-04-10T13:16:14.677Z,8.72
2019-04-10T13:17:14.754Z,8.61
2019-04-10T13:18:14.364Z,8.64
2019-04-10T13:19:13.604Z,8.68
2019-04-10T13:20:14.136Z,8.64
2019-04-10T13:21:14.899Z,8.61
2019-04-10T13:22:14.349Z,8.74
2019-04-10T13:23:17.764Z,8.69
2019-04-10T13:24:13.955Z,8.74
2019-04-10T13:25:15.011Z,8.72
2019-04-10T13:26:15.654Z,8.79
2019-04-10T13:27:14.609Z,8.72
2019-04-10T13:28:15.107Z,8.85
2019-04-10T13:29:14.399Z,8.87
2019-04-10T13:30:17.119Z,8.85
2019-04-10T13:31:13.705Z,8.94
2019-04-10T13:32:14.563Z,9
2019-04-10T13:33:14.538Z,8.97
2019-04-10T13:34:13.850Z,8.98
2019-04-10T13:35:13.677Z,9.16
2019-04-10T13:36:13.779Z,8.97
2019-04-10T13:37:15.734Z,9.01
2019-04-10T13:38:23.047Z,8.9
2019-04-10T13:39:13.536Z,8.94
2019-04-10T13:40:13.425Z,8.85